Time;durP1;ratioP1;P1;durP2;ratioP2;P2;SDS_P1;SDS_P2;PMS_P1;PMS_P2;Temp;Humidity;BMP_temperature;BMP_pressure;BME280_temperature;BME280_humidity;BME280_pressure;Samples;Min_cycle;Max_cycle;Signal;HPM_P1;HPM_P2
2022/10/27 00:02:12;;;;;;;1.60;1.50;;;21.60;48.70;;;;;;5030524;28;20229;-62
2022/10/27 00:04:38;;;;;;;1.37;1.27;;;21.60;48.70;;;;;;5026992;28;20237;-58
2022/10/27 00:07:03;;;;;;;1.57;1.47;;;21.60;48.70;;;;;;5031143;28;20280;-64
2022/10/27 00:09:29;;;;;;;1.47;1.37;;;21.60;48.70;;;;;;5030861;28;22086;-60
2022/10/27 00:11:55;;;;;;;1.43;1.33;;;21.60;48.80;;;;;;5027309;28;20220;-63
2022/10/27 00:14:21;;;;;;;1.30;1.20;;;21.60;48.70;;;;;;5031787;28;20229;-58
2022/10/27 00:16:54;;;;;;;1.57;1.47;;;21.60;48.80;;;;;;5026804;28;20451;-62
2022/10/27 00:19:20;;;;;;;1.50;1.37;;;21.60;48.70;;;;;;5043754;28;20633;-60
2022/10/27 00:21:46;;;;;;;1.50;1.40;;;21.50;48.60;;;;;;5026499;28;20470;-64
2022/10/27 00:24:12;;;;;;;1.50;1.40;;;21.60;48.80;;;;;;5029955;28;20451;-64
2022/10/27 00:26:37;;;;;;;1.77;1.67;;;21.50;48.60;;;;;;5025459;28;20271;-60
2022/10/27 00:29:03;;;;;;;1.60;1.20;;;21.60;48.70;;;;;;5023721;28;20230;-59
2022/10/27 00:31:28;;;;;;;1.87;1.10;;;21.60;48.80;;;;;;5025645;28;20595;-60
2022/10/27 00:33:54;;;;;;;1.50;1.40;;;21.60;48.70;;;;;;5026649;28;20233;-63
2022/10/27 00:36:24;;;;;;;1.53;1.43;;;21.60;48.80;;;;;;5028118;28;20261;-63
2022/10/27 00:38:57;;;;;;;1.63;1.53;;;21.60;48.70;;;;;;5026744;28;20308;-64
2022/10/27 00:41:34;;;;;;;1.60;1.50;;;21.60;48.80;;;;;;5033447;28;20466;-64
2022/10/27 00:44:20;;;;;;;1.60;1.50;;;21.60;48.80;;;;;;5028390;28;20467;-62
2022/10/27 00:46:46;;;;;;;1.60;1.50;;;21.60;48.70;;;;;;5028521;28;20552;-61
2022/10/27 00:49:18;;;;;;;1.40;1.30;;;21.60;48.90;;;;;;5036307;28;20467;-60
2022/10/27 00:51:57;;;;;;;1.50;1.40;;;21.60;48.80;;;;;;5030257;28;20466;-64
2022/10/27 00:54:24;;;;;;;1.37;1.27;;;21.60;48.80;;;;;;5037537;28;21283;-61
2022/10/27 00:56:53;;;;;;;1.50;1.40;;;21.60;48.80;;;;;;5029919;28;21569;-62
2022/10/27 00:59:19;;;;;;;1.50;1.40;;;21.60;48.80;;;;;;5033901;28;20556;-62
2022/10/27 01:01:46;;;;;;;1.83;1.30;;;21.50;48.70;;;;;;5027757;28;20460;-63
2022/10/27 01:04:14;;;;;;;1.43;1.33;;;21.60;48.80;;;;;;5029345;28;20506;-58
2022/10/27 01:06:40;;;;;;;1.33;1.23;;;21.60;48.80;;;;;;5035390;28;20501;-62
2022/10/27 01:09:06;;;;;;;1.27;1.17;;;21.50;48.70;;;;;;5039596;28;20799;-63
2022/10/27 01:11:31;;;;;;;1.63;1.53;;;21.50;48.70;;;;;;5036242;28;20260;-64
2022/10/27 01:13:57;;;;;;;1.50;1.40;;;21.60;48.80;;;;;;5041663;28;20539;-61
2022/10/27 01:16:42;;;;;;;1.50;1.40;;;21.60;48.80;;;;;;5036664;28;20233;-61
2022/10/27 01:19:32;;;;;;;1.20;1.10;;;21.60;48.80;;;;;;5037893;28;20229;-59
2022/10/27 01:22:00;;;;;;;1.80;1.30;;;21.60;48.80;;;;;;5040509;28;20957;-62
2022/10/27 01:24:39;;;;;;;3.37;1.40;;;21.50;48.70;;;;;;5038125;28;21056;-64
2022/10/27 01:27:16;;;;;;;1.90;1.20;;;21.50;48.70;;;;;;5032997;28;20529;-63
2022/10/27 01:30:01;;;;;;;1.40;1.30;;;21.50;48.70;;;;;;5029561;28;20467;-60
2022/10/27 01:32:36;;;;;;;3.20;1.40;;;21.60;48.80;;;;;;5021196;28;20507;-64
2022/10/27 01:35:43;;;;;;;1.23;1.13;;;21.50;48.70;;;;;;5026972;28;20479;-63
2022/10/27 01:38:43;;;;;;;1.30;1.20;;;21.50;48.70;;;;;;4994156;28;20471;-63
2022/10/27 01:41:15;;;;;;;1.33;1.23;;;21.50;48.80;;;;;;5033745;28;21163;-60
2022/10/27 01:43:41;;;;;;;1.30;1.20;;;21.50;48.70;;;;;;5036073;28;20462;-63
2022/10/27 01:46:08;;;;;;;1.43;1.33;;;21.50;48.80;;;;;;5039362;28;20460;-63
2022/10/27 01:48:36;;;;;;;1.27;1.17;;;21.50;48.70;;;;;;5040901;28;20479;-62
2022/10/27 01:51:02;;;;;;;1.40;1.27;;;21.50;48.80;;;;;;5041020;28;20493;-64
2022/10/27 01:53:31;;;;;;;1.40;1.30;;;21.50;48.70;;;;;;5035853;28;21506;-63
2022/10/27 01:56:03;;;;;;;1.50;1.40;;;21.50;48.70;;;;;;5036731;28;20441;-63
2022/10/27 01:58:53;;;;;;;1.30;1.20;;;21.50;48.70;;;;;;5029319;28;20546;-60
2022/10/27 02:01:36;;;;;;;1.37;1.27;;;21.50;48.80;;;;;;5027750;28;20463;-63
2022/10/27 02:04:28;;;;;;;1.83;1.40;;;21.50;48.80;;;;;;5031376;28;20470;-65
2022/10/27 02:07:11;;;;;;;1.93;1.47;;;21.50;48.80;;;;;;5035101;28;20670;-62
2022/10/27 02:09:42;;;;;;;1.43;1.33;;;21.50;48.80;;;;;;5037986;28;20849;-61
2022/10/27 02:12:42;;;;;;;1.30;1.20;;;21.50;48.70;;;;;;5036635;28;20459;-60
2022/10/27 02:15:28;;;;;;;1.40;1.30;;;21.50;48.80;;;;;;5019633;28;20455;-64
2022/10/27 02:18:00;;;;;;;1.50;1.40;;;21.50;48.80;;;;;;5037023;28;20550;-63
2022/10/27 02:20:31;;;;;;;1.37;1.27;;;21.50;48.80;;;;;;5037047;28;20478;-63
2022/10/27 02:23:01;;;;;;;1.60;1.47;;;21.50;48.80;;;;;;5032702;28;20814;-63
2022/10/27 02:25:32;;;;;;;1.63;1.30;;;21.50;48.80;;;;;;5035249;28;20472;-60
2022/10/27 02:28:05;;;;;;;1.37;1.27;;;21.50;48.80;;;;;;5029993;28;20456;-61
2022/10/27 02:30:32;;;;;;;1.30;1.20;;;21.50;48.80;;;;;;5028171;28;20455;-58
2022/10/27 02:32:58;;;;;;;1.30;1.20;;;21.50;48.80;;;;;;5025943;28;20455;-65
2022/10/27 02:35:24;;;;;;;1.40;1.30;;;21.50;48.80;;;;;;5030608;28;20445;-60
2022/10/27 02:37:50;;;;;;;1.33;1.23;;;21.50;48.70;;;;;;5030623;28;20574;-60
2022/10/27 02:40:16;;;;;;;1.40;1.30;;;21.50;48.80;;;;;;5030994;28;20232;-64
2022/10/27 02:42:41;;;;;;;1.33;1.23;;;21.50;48.70;;;;;;5028616;28;20440;-64
2022/10/27 02:45:07;;;;;;;1.67;1.47;;;21.50;48.70;;;;;;5014188;28;20244;-63
2022/10/27 02:47:33;;;;;;;1.23;1.13;;;21.50;48.70;;;;;;5034223;28;20233;-58
2022/10/27 02:49:59;;;;;;;1.30;1.20;;;21.50;48.70;;;;;;5034166;28;20971;-63
2022/10/27 02:52:24;;;;;;;1.40;1.30;;;21.50;48.80;;;;;;5037495;28;20214;-65
2022/10/27 02:54:50;;;;;;;1.30;1.20;;;21.50;48.80;;;;;;5033582;28;20214;-63
2022/10/27 02:57:16;;;;;;;1.20;1.10;;;21.50;49.50;;;;;;5033029;28;20218;-64
2022/10/27 02:59:43;;;;;;;1.53;1.43;;;21.50;48.70;;;;;;5028340;28;20246;-63
2022/10/27 03:02:08;;;;;;;1.33;1.23;;;21.50;48.70;;;;;;5025234;28;20460;-64
2022/10/27 03:04:34;;;;;;;1.20;1.10;;;21.50;48.80;;;;;;5028444;28;20999;-61
2022/10/27 03:07:00;;;;;;;1.40;1.30;;;21.50;48.70;;;;;;5027854;28;20694;-64
2022/10/27 03:09:25;;;;;;;1.43;1.20;;;21.50;48.80;;;;;;5032613;28;20238;-63
2022/10/27 03:11:50;;;;;;;1.30;1.20;;;21.50;48.70;;;;;;5028983;28;20234;-63
2022/10/27 03:14:16;;;;;;;1.70;1.30;;;21.50;48.70;;;;;;5029782;28;20218;-62
2022/10/27 03:16:42;;;;;;;1.40;1.30;;;21.50;48.80;;;;;;5030093;28;20218;-64
2022/10/27 03:19:07;;;;;;;1.87;1.77;;;21.50;49.50;;;;;;5009088;28;20211;-64
2022/10/27 03:21:33;;;;;;;1.27;1.17;;;21.50;48.80;;;;;;5030140;28;20230;-60
2022/10/27 03:23:58;;;;;;;1.43;1.33;;;21.50;48.70;;;;;;5027898;28;20230;-62
2022/10/27 03:26:24;;;;;;;1.60;1.37;;;21.50;48.70;;;;;;5032362;28;20739;-65
2022/10/27 03:28:49;;;;;;;1.40;1.30;;;21.50;48.80;;;;;;5029233;28;20234;-61
2022/10/27 03:31:15;;;;;;;1.40;1.30;;;21.50;48.70;;;;;;5028647;28;20271;-58
2022/10/27 03:33:40;;;;;;;1.30;1.00;;;21.50;48.70;;;;;;5031023;28;20228;-62
2022/10/27 03:36:06;;;;;;;1.40;1.30;;;21.50;48.80;;;;;;5031517;28;20279;-61
2022/10/27 03:38:31;;;;;;;1.40;1.30;;;21.50;48.70;;;;;;5026706;28;20296;-62
2022/10/27 03:40:57;;;;;;;1.20;1.10;;;21.50;48.80;;;;;;5028017;28;20264;-62
2022/10/27 03:43:22;;;;;;;1.60;1.13;;;21.50;48.70;;;;;;5026313;28;20253;-65
2022/10/27 03:45:48;;;;;;;1.20;1.10;;;21.50;48.70;;;;;;5028155;28;20217;-65
2022/10/27 03:48:15;;;;;;;1.53;1.43;;;21.50;48.80;;;;;;5027550;28;20245;-64
2022/10/27 03:50:48;;;;;;;1.20;1.10;;;21.50;48.80;;;;;;5033467;28;20970;-62
2022/10/27 03:53:14;;;;;;;1.30;1.10;;;21.50;48.80;;;;;;5027314;28;20981;-63
2022/10/27 03:55:40;;;;;;;1.30;1.20;;;21.50;48.80;;;;;;5028071;28;20491;-63
2022/10/27 03:58:05;;;;;;;1.30;1.20;;;21.50;48.80;;;;;;5027617;28;20989;-61
2022/10/27 04:00:32;;;;;;;2.27;1.10;;;21.50;48.80;;;;;;5025453;28;20226;-64
2022/10/27 04:02:58;;;;;;;1.17;1.10;;;21.50;48.70;;;;;;5031493;28;20564;-59
2022/10/27 04:05:24;;;;;;;1.50;1.40;;;21.50;48.70;;;;;;5029647;28;20486;-64
2022/10/27 04:07:49;;;;;;;1.20;1.10;;;21.50;48.70;;;;;;5029589;28;20451;-63
2022/10/27 04:10:15;;;;;;;1.90;1.47;;;21.50;48.70;;;;;;5028408;28;20241;-64
2022/10/27 04:12:55;;;;;;;1.37;1.27;;;21.50;48.70;;;;;;5032473;28;20744;-58
2022/10/27 04:15:23;;;;;;;1.30;1.20;;;21.50;48.80;;;;;;5028395;28;20337;-64
2022/10/27 04:17:52;;;;;;;1.40;1.30;;;21.50;48.80;;;;;;5034093;28;20470;-62
2022/10/27 04:20:18;;;;;;;1.40;1.30;;;21.50;48.70;;;;;;5032542;28;20467;-61
2022/10/27 04:22:43;;;;;;;1.43;1.33;;;21.50;48.80;;;;;;5035463;28;20466;-63
2022/10/27 04:25:09;;;;;;;1.30;1.20;;;21.50;48.70;;;;;;5030420;28;20214;-62
2022/10/27 04:27:35;;;;;;;2.60;1.20;;;21.50;48.70;;;;;;5033821;28;20744;-62
2022/10/27 04:30:00;;;;;;;1.30;1.20;;;21.50;48.70;;;;;;5032990;28;20237;-58
2022/10/27 04:32:26;;;;;;;1.30;1.20;;;21.60;48.70;;;;;;5033292;28;20582;-60
2022/10/27 04:34:51;;;;;;;2.00;1.87;;;21.60;48.70;;;;;;5034003;28;20295;-60
2022/10/27 04:37:17;;;;;;;1.40;1.30;;;21.60;48.60;;;;;;5033788;28;20348;-64
2022/10/27 04:39:42;;;;;;;1.20;1.10;;;21.60;48.60;;;;;;5032314;28;20221;-61
2022/10/27 04:42:10;;;;;;;1.37;1.27;;;21.60;48.60;;;;;;5028037;28;20236;-63
2022/10/27 04:44:35;;;;;;;1.40;1.30;;;21.60;48.50;;;;;;5037488;28;20308;-64
2022/10/27 04:47:01;;;;;;;1.10;1.00;;;21.60;48.50;;;;;;5036262;28;20501;-64
2022/10/27 04:49:26;;;;;;;1.57;1.10;;;21.60;48.60;;;;;;5035079;28;20277;-62
2022/10/27 04:51:52;;;;;;;1.50;1.40;;;21.60;48.60;;;;;;5029963;28;20214;-64
2022/10/27 04:54:17;;;;;;;1.30;1.20;;;21.60;48.50;;;;;;5032370;28;20202;-60
2022/10/27 04:56:43;;;;;;;1.30;1.20;;;21.60;48.60;;;;;;5022013;28;20305;-62
2022/10/27 04:59:09;;;;;;;1.30;1.20;;;21.60;48.60;;;;;;5035794;28;20218;-64
2022/10/27 05:01:34;;;;;;;1.30;1.20;;;21.60;48.60;;;;;;5033766;28;20252;-64
2022/10/27 05:04:00;;;;;;;1.73;1.10;;;21.60;48.50;;;;;;5033527;28;20553;-64
2022/10/27 05:06:25;;;;;;;1.37;1.27;;;21.60;48.60;;;;;;5033379;28;21843;-60
2022/10/27 05:08:51;;;;;;;1.20;1.10;;;21.60;48.50;;;;;;5036021;28;20233;-59
2022/10/27 05:11:16;;;;;;;1.40;1.30;;;21.60;48.60;;;;;;5031455;28;20222;-65
2022/10/27 05:13:42;;;;;;;1.33;1.23;;;21.60;48.60;;;;;;5036064;28;21799;-63
2022/10/27 05:16:08;;;;;;;1.47;1.37;;;21.60;48.50;;;;;;5030988;28;20692;-58
2022/10/27 05:18:33;;;;;;;1.90;1.57;;;21.60;48.50;;;;;;5036434;28;20225;-62
2022/10/27 05:20:59;;;;;;;1.23;1.10;;;21.60;48.50;;;;;;5036010;28;20222;-64
2022/10/27 05:23:25;;;;;;;1.30;1.20;;;21.60;48.70;;;;;;5030412;28;20226;-64
2022/10/27 05:25:52;;;;;;;1.33;1.23;;;21.60;48.60;;;;;;5016739;28;20562;-60
2022/10/27 05:28:19;;;;;;;1.40;1.30;;;21.60;48.60;;;;;;5028356;28;20455;-62
2022/10/27 05:30:44;;;;;;;1.30;1.20;;;21.60;48.60;;;;;;5026068;28;20463;-63
2022/10/27 05:33:10;;;;;;;1.30;1.20;;;21.60;48.60;;;;;;5031351;28;20505;-61
2022/10/27 05:35:35;;;;;;;1.43;1.33;;;21.60;48.60;;;;;;5023941;28;20585;-65
2022/10/27 05:38:01;;;;;;;1.30;1.20;;;21.60;48.60;;;;;;5028387;28;20762;-61
2022/10/27 05:40:33;;;;;;;1.30;1.20;;;21.60;48.60;;;;;;5021280;28;20269;-60
2022/10/27 05:42:59;;;;;;;1.20;1.10;;;21.60;48.60;;;;;;5033432;28;20229;-62
2022/10/27 05:45:25;;;;;;;1.40;1.10;;;21.60;48.60;;;;;;5028499;28;20797;-63
2022/10/27 05:47:58;;;;;;;1.20;1.10;;;21.60;48.60;;;;;;5031938;28;20455;-61
2022/10/27 05:50:24;;;;;;;1.10;1.00;;;21.60;48.60;;;;;;5033216;28;20507;-64
2022/10/27 05:52:50;;;;;;;3.30;1.13;;;21.60;48.60;;;;;;5034274;28;20821;-64
2022/10/27 05:55:15;;;;;;;1.43;1.33;;;21.60;48.50;;;;;;5025244;28;20463;-67
2022/10/27 05:57:41;;;;;;;1.50;1.40;;;21.50;49.20;;;;;;5031681;28;20226;-65
2022/10/27 06:00:07;;;;;;;1.30;1.20;;;21.60;48.50;;;;;;5035450;28;20234;-59
2022/10/27 06:02:33;;;;;;;1.50;1.40;;;21.60;48.60;;;;;;5031871;28;20233;-63
2022/10/27 06:04:58;;;;;;;2.67;1.40;;;21.60;48.50;;;;;;5034414;28;20455;-64
2022/10/27 06:07:24;;;;;;;1.20;1.10;;;21.60;48.50;;;;;;5030873;28;20228;-66
2022/10/27 06:09:49;;;;;;;1.30;1.17;;;21.50;48.40;;;;;;5030057;28;20234;-63
2022/10/27 06:12:15;;;;;;;1.50;1.20;;;21.60;48.50;;;;;;5029439;28;20230;-66
2022/10/27 06:14:40;;;;;;;2.10;1.20;;;21.60;49.20;;;;;;5030811;28;20237;-65
2022/10/27 06:17:06;;;;;;;1.50;1.40;;;21.60;48.50;;;;;;5030809;28;20229;-60
2022/10/27 06:19:31;;;;;;;1.27;1.17;;;21.60;48.50;;;;;;5030926;28;20227;-66
2022/10/27 06:21:57;;;;;;;1.83;1.30;;;21.60;48.50;;;;;;5029454;28;20253;-66
2022/10/27 06:24:22;;;;;;;1.40;1.30;;;21.60;48.50;;;;;;5029176;28;20260;-65
2022/10/27 06:26:48;;;;;;;2.17;1.20;;;21.60;49.20;;;;;;5030207;28;20214;-66
2022/10/27 06:29:13;;;;;;;4.13;1.60;;;21.60;48.50;;;;;;5028193;28;21347;-66
2022/10/27 06:31:41;;;;;;;2.50;1.27;;;21.60;48.50;;;;;;5030026;28;20214;-67
2022/10/27 06:34:07;;;;;;;1.60;1.50;;;21.60;48.50;;;;;;5027391;28;20693;-61
2022/10/27 06:36:32;;;;;;;2.60;1.40;;;21.60;48.50;;;;;;5033800;28;20463;-66
2022/10/27 06:38:58;;;;;;;1.23;1.13;;;21.60;48.50;;;;;;5026001;28;20280;-64
2022/10/27 06:41:23;;;;;;;1.30;1.20;;;21.60;48.50;;;;;;5025698;28;20222;-61
2022/10/27 06:43:49;;;;;;;1.50;1.40;;;21.60;48.50;;;;;;5030640;28;20214;-66
2022/10/27 06:46:14;;;;;;;1.30;1.20;;;21.50;48.40;;;;;;5026524;28;20297;-61
2022/10/27 06:48:40;;;;;;;2.80;1.97;;;21.60;48.50;;;;;;5026746;28;20720;-65
2022/10/27 06:51:05;;;;;;;1.40;1.30;;;21.60;48.50;;;;;;5031135;28;20222;-59
2022/10/27 06:53:31;;;;;;;1.37;1.27;;;21.50;48.40;;;;;;5029048;28;20526;-67
2022/10/27 06:55:57;;;;;;;1.70;1.30;;;21.60;48.50;;;;;;5028205;28;20236;-65
2022/10/27 06:58:23;;;;;;;1.30;1.20;;;21.60;48.50;;;;;;5029230;28;20222;-64
2022/10/27 07:00:48;;;;;;;1.30;1.20;;;21.60;48.50;;;;;;5028714;28;20463;-61
2022/10/27 07:03:14;;;;;;;1.37;1.27;;;21.60;48.50;;;;;;5029857;28;21055;-64
2022/10/27 07:05:40;;;;;;;1.63;1.40;;;21.60;48.50;;;;;;5031281;28;20257;-62
2022/10/27 07:08:05;;;;;;;2.00;1.30;;;21.60;48.50;;;;;;5029354;28;20264;-67
2022/10/27 07:10:31;;;;;;;1.67;1.20;;;21.60;48.40;;;;;;5028480;28;20686;-66
2022/10/27 07:12:59;;;;;;;2.10;1.27;;;21.60;48.50;;;;;;5032209;28;20252;-64
2022/10/27 07:15:30;;;;;;;1.37;1.27;;;21.60;48.40;;;;;;5027769;28;20221;-62
2022/10/27 07:17:58;;;;;;;2.00;1.23;;;21.60;48.50;;;;;;5030964;28;20862;-64
2022/10/27 07:20:24;;;;;;;1.63;1.27;;;21.60;48.30;;;;;;5033943;28;20477;-66
2022/10/27 07:22:49;;;;;;;1.50;1.37;;;21.60;48.30;;;;;;5031799;28;20479;-65
2022/10/27 07:25:15;;;;;;;1.20;1.10;;;21.60;48.30;;;;;;5028346;28;20262;-66
2022/10/27 07:27:40;;;;;;;1.30;1.10;;;21.60;48.30;;;;;;5031063;28;20226;-66
2022/10/27 07:30:06;;;;;;;4.20;1.60;;;21.60;48.30;;;;;;5030868;28;20690;-60
2022/10/27 07:32:32;;;;;;;1.30;1.20;;;21.60;48.50;;;;;;5031295;28;20242;-63
2022/10/27 07:34:57;;;;;;;1.33;1.23;;;21.60;48.30;;;;;;5028484;28;20916;-67
2022/10/27 07:37:23;;;;;;;1.47;1.20;;;21.60;48.30;;;;;;5029748;28;20264;-65
2022/10/27 07:39:49;;;;;;;1.27;1.17;;;21.60;48.30;;;;;;5025965;28;20241;-59
2022/10/27 07:42:16;;;;;;;1.07;0.97;;;21.60;48.30;;;;;;5025963;28;20685;-65
2022/10/27 07:44:42;;;;;;;1.53;1.43;;;21.60;48.30;;;;;;5029155;28;20809;-59
2022/10/27 07:47:07;;;;;;;1.30;1.20;;;21.60;48.30;;;;;;5029501;28;20477;-65
2022/10/27 07:49:33;;;;;;;1.20;1.10;;;21.60;48.30;;;;;;5028159;28;20238;-64
2022/10/27 07:51:58;;;;;;;1.40;1.30;;;21.60;48.30;;;;;;5020581;28;20679;-66
2022/10/27 07:54:24;;;;;;;1.30;1.20;;;21.60;48.30;;;;;;5027508;28;20229;-67
2022/10/27 07:56:51;;;;;;;1.80;1.33;;;21.60;48.20;;;;;;5027788;28;20218;-62
2022/10/27 07:59:16;;;;;;;1.13;1.03;;;21.60;48.30;;;;;;5023171;28;20590;-64
2022/10/27 08:01:42;;;;;;;1.53;1.10;;;21.60;48.30;;;;;;5029583;28;20463;-62
2022/10/27 08:04:07;;;;;;;1.30;1.20;;;21.60;48.30;;;;;;5030931;28;20758;-59
2022/10/27 08:06:33;;;;;;;1.30;1.20;;;21.60;48.30;;;;;;5031975;28;20222;-65
2022/10/27 08:08:58;;;;;;;1.30;1.10;;;21.60;48.30;;;;;;5029756;28;20690;-68
2022/10/27 08:11:24;;;;;;;1.57;1.33;;;21.60;48.30;;;;;;5025691;28;20337;-67
2022/10/27 08:13:51;;;;;;;1.27;1.17;;;21.60;48.30;;;;;;5028601;28;20217;-61
2022/10/27 08:16:16;;;;;;;1.20;1.10;;;21.60;48.30;;;;;;5030630;28;20226;-58
2022/10/27 08:18:42;;;;;;;1.20;1.10;;;21.60;48.30;;;;;;5027747;28;21104;-67
2022/10/27 08:21:07;;;;;;;1.30;1.20;;;21.60;48.30;;;;;;5021447;28;20233;-64
2022/10/27 08:23:33;;;;;;;1.30;1.20;;;21.60;48.20;;;;;;5030854;28;20712;-65
2022/10/27 08:25:58;;;;;;;1.30;1.20;;;21.60;48.30;;;;;;5025466;28;20585;-62
2022/10/27 08:28:25;;;;;;;1.10;1.00;;;21.60;48.30;;;;;;5028438;28;20288;-67
2022/10/27 08:30:51;;;;;;;2.00;1.77;;;21.60;48.30;;;;;;5030014;28;20230;-66
2022/10/27 08:33:17;;;;;;;1.30;1.20;;;21.60;48.30;;;;;;5039299;28;20465;-61
2022/10/27 08:35:42;;;;;;;1.57;1.03;;;21.60;48.20;;;;;;5035417;28;20430;-65
2022/10/27 08:38:13;;;;;;;1.37;1.27;;;21.60;48.20;;;;;;5035321;28;20218;-61
2022/10/27 08:41:15;;;;;;;1.30;1.20;;;21.60;48.20;;;;;;5030198;28;20308;-65
2022/10/27 08:43:46;;;;;;;1.20;1.07;;;21.60;48.20;;;;;;5035858;28;20487;-65
2022/10/27 08:46:18;;;;;;;1.13;1.03;;;21.60;48.30;;;;;;5035596;28;20447;-66
2022/10/27 08:48:46;;;;;;;1.23;1.13;;;21.60;48.30;;;;;;5034745;28;20459;-65
2022/10/27 08:51:19;;;;;;;1.37;1.27;;;21.60;48.20;;;;;;5033019;28;20440;-66
2022/10/27 08:53:49;;;;;;;1.10;1.00;;;21.60;48.20;;;;;;5034280;28;20475;-67
2022/10/27 08:56:15;;;;;;;1.20;1.10;;;21.60;48.20;;;;;;5033711;28;20458;-67
2022/10/27 08:58:46;;;;;;;1.17;1.00;;;21.60;48.20;;;;;;5026421;28;20472;-62
2022/10/27 09:01:19;;;;;;;1.10;1.00;;;21.60;48.30;;;;;;5029305;28;20454;-66
2022/10/27 09:03:59;;;;;;;1.17;1.07;;;21.60;48.20;;;;;;5026048;28;20971;-62
2022/10/27 09:06:57;;;;;;;1.20;1.10;;;21.60;48.20;;;;;;5031190;28;20440;-63
2022/10/27 09:09:41;;;;;;;1.10;1.00;;;21.60;48.30;;;;;;5025801;28;20475;-59
2022/10/27 09:12:30;;;;;;;1.77;1.10;;;21.60;48.20;;;;;;5031606;28;20458;-63
2022/10/27 09:15:18;;;;;;;1.30;1.20;;;21.60;48.20;;;;;;5031078;28;20557;-62
2022/10/27 09:18:16;;;;;;;1.27;1.17;;;21.60;48.20;;;;;;5031237;28;20490;-61
2022/10/27 09:20:45;;;;;;;1.20;1.10;;;21.60;48.30;;;;;;5026159;28;20527;-65
2022/10/27 09:23:21;;;;;;;1.20;1.10;;;21.60;48.20;;;;;;5030899;28;20471;-61
2022/10/27 09:25:59;;;;;;;1.30;1.20;;;21.60;48.20;;;;;;5030908;28;20444;-64
2022/10/27 09:28:36;;;;;;;1.77;1.07;;;21.60;48.20;;;;;;5028133;28;20511;-65
2022/10/27 09:31:03;;;;;;;1.10;1.00;;;21.60;48.20;;;;;;5031963;28;20482;-63
2022/10/27 09:33:33;;;;;;;1.20;1.10;;;21.60;48.20;;;;;;5030767;28;20467;-65
2022/10/27 09:36:04;;;;;;;1.20;1.10;;;21.60;48.20;;;;;;5035034;28;20462;-65
2022/10/27 09:38:30;;;;;;;1.37;1.10;;;21.70;48.30;;;;;;5028647;28;20544;-64
2022/10/27 09:40:55;;;;;;;1.77;1.00;;;21.70;48.30;;;;;;5031269;28;20471;-60
2022/10/27 09:43:22;;;;;;;1.30;1.20;;;21.60;48.20;;;;;;5026071;28;20226;-59
2022/10/27 09:45:54;;;;;;;1.47;1.20;;;21.70;48.30;;;;;;5026433;28;20305;-65
2022/10/27 09:48:23;;;;;;;1.10;1.00;;;21.70;48.30;;;;;;5031949;28;20471;-63
2022/10/27 09:50:57;;;;;;;1.00;0.90;;;21.70;48.30;;;;;;5030415;28;20475;-64
2022/10/27 09:53:46;;;;;;;1.00;0.90;;;21.70;48.30;;;;;;5029079;28;20459;-63
2022/10/27 09:56:26;;;;;;;1.30;1.20;;;21.70;48.30;;;;;;5022877;28;20444;-64
2022/10/27 09:58:57;;;;;;;1.37;1.13;;;21.70;48.30;;;;;;5023456;28;20459;-67
2022/10/27 10:01:56;;;;;;;1.20;1.10;;;21.70;48.30;;;;;;5026011;28;20595;-64
2022/10/27 10:04:30;;;;;;;1.10;1.00;;;21.70;48.20;;;;;;5028597;28;20487;-65
2022/10/27 10:07:02;;;;;;;1.07;0.97;;;21.70;48.30;;;;;;5032909;28;20469;-60
2022/10/27 10:09:31;;;;;;;1.17;1.07;;;21.70;48.40;;;;;;5030233;28;20938;-68
2022/10/27 10:12:20;;;;;;;1.30;1.20;;;21.70;48.30;;;;;;5030862;28;21335;-62
2022/10/27 10:14:46;;;;;;;1.00;1.00;;;21.70;48.20;;;;;;5031454;28;20477;-58
2022/10/27 10:17:26;;;;;;;1.07;0.97;;;21.70;48.30;;;;;;5030404;28;20985;-65
2022/10/27 10:19:54;;;;;;;1.30;1.20;;;21.70;48.30;;;;;;5033738;28;20218;-65
2022/10/27 10:22:28;;;;;;;1.57;1.47;;;21.70;48.30;;;;;;5026750;28;20565;-65
2022/10/27 10:24:57;;;;;;;1.13;1.00;;;21.70;48.20;;;;;;5033537;28;20494;-67
2022/10/27 10:27:32;;;;;;;1.30;1.20;;;21.70;48.20;;;;;;5032901;28;20467;-60
2022/10/27 10:30:02;;;;;;;1.10;1.00;;;21.70;48.20;;;;;;5028959;28;20474;-59
2022/10/27 10:32:36;;;;;;;1.03;1.00;;;21.70;48.20;;;;;;5022260;28;20454;-61
2022/10/27 10:35:23;;;;;;;1.10;1.00;;;21.70;48.20;;;;;;5029152;28;20458;-61
2022/10/27 10:37:48;;;;;;;1.00;1.00;;;21.70;48.30;;;;;;5031634;28;20471;-66
2022/10/27 10:40:15;;;;;;;1.10;1.00;;;21.70;48.30;;;;;;5031035;28;20458;-66
2022/10/27 10:42:46;;;;;;;1.23;1.10;;;21.70;48.30;;;;;;5030027;28;20310;-64
2022/10/27 10:45:21;;;;;;;1.10;1.00;;;21.70;48.20;;;;;;5026170;28;20986;-63
2022/10/27 10:47:49;;;;;;;1.20;1.10;;;21.70;48.30;;;;;;5028839;28;20544;-64
2022/10/27 10:50:15;;;;;;;1.20;1.10;;;21.70;48.20;;;;;;5025248;28;20483;-62
2022/10/27 10:52:48;;;;;;;1.10;1.00;;;21.70;48.30;;;;;;5024728;28;20531;-62
2022/10/27 10:55:35;;;;;;;0.87;0.87;;;21.70;48.20;;;;;;5035179;28;20459;-62
2022/10/27 10:58:01;;;;;;;0.90;0.90;;;21.70;48.20;;;;;;5039287;28;20994;-61
2022/10/27 11:00:27;;;;;;;0.90;0.90;;;21.70;48.30;;;;;;5037395;28;20628;-60
2022/10/27 11:03:01;;;;;;;1.57;1.47;;;21.70;48.30;;;;;;5038682;28;20450;-64
2022/10/27 11:05:32;;;;;;;1.10;1.00;;;21.70;48.20;;;;;;5036537;28;20479;-64
2022/10/27 11:07:58;;;;;;;1.07;0.97;;;21.70;48.20;;;;;;5041513;28;20458;-64
2022/10/27 11:10:48;;;;;;;1.10;1.00;;;21.70;48.20;;;;;;5032571;28;20482;-59
2022/10/27 11:13:19;;;;;;;1.20;1.10;;;21.70;48.20;;;;;;5036949;28;20518;-60
2022/10/27 11:16:00;;;;;;;1.10;1.00;;;21.70;48.20;;;;;;5037804;28;20981;-61
2022/10/27 11:18:54;;;;;;;1.10;1.00;;;21.70;48.20;;;;;;5028518;28;20460;-61
2022/10/27 11:21:38;;;;;;;0.90;0.90;;;21.70;48.10;;;;;;5036355;28;20463;-64
2022/10/27 11:24:14;;;;;;;1.10;1.00;;;21.70;48.20;;;;;;5033445;28;20840;-60
2022/10/27 11:27:03;;;;;;;1.10;1.00;;;21.70;48.20;;;;;;5036358;28;20496;-63
2022/10/27 11:29:44;;;;;;;1.10;1.00;;;21.70;48.20;;;;;;5030763;28;20483;-64
2022/10/27 11:32:25;;;;;;;0.90;0.90;;;21.70;48.20;;;;;;5034033;28;21013;-64
2022/10/27 11:35:13;;;;;;;1.40;1.30;;;21.80;48.30;;;;;;5040639;28;20546;-64
2022/10/27 11:38:03;;;;;;;0.87;0.87;;;21.70;48.10;;;;;;5036995;28;20542;-63
2022/10/27 11:40:51;;;;;;;2.03;1.10;;;21.70;48.20;;;;;;5028536;28;20594;-64
2022/10/27 11:43:40;;;;;;;0.90;0.90;;;21.70;48.20;;;;;;5033896;28;20443;-65
2022/10/27 11:46:12;;;;;;;1.00;1.00;;;21.70;48.20;;;;;;5034470;28;20468;-64
2022/10/27 11:48:57;;;;;;;0.90;0.90;;;21.70;48.20;;;;;;5040001;28;20463;-62
2022/10/27 11:51:45;;;;;;;1.10;1.00;;;21.70;48.20;;;;;;5033096;28;20858;-63
2022/10/27 11:54:11;;;;;;;0.87;0.87;;;21.70;48.20;;;;;;5035943;28;20947;-59
2022/10/27 11:57:06;;;;;;;0.93;0.90;;;21.70;48.20;;;;;;5035786;28;20455;-63
2022/10/27 11:59:47;;;;;;;1.23;1.07;;;21.70;48.20;;;;;;5033020;28;20224;-63
2022/10/27 12:02:51;;;;;;;1.23;0.90;;;21.70;48.20;;;;;;5026222;28;20495;-59
2022/10/27 12:05:28;;;;;;;1.00;0.90;;;21.70;48.20;;;;;;5016871;28;20467;-63
2022/10/27 12:08:34;;;;;;;1.00;0.90;;;21.70;48.20;;;;;;5031840;28;20469;-64
2022/10/27 12:11:18;;;;;;;1.57;1.00;;;21.70;48.20;;;;;;5034736;28;20497;-64
2022/10/27 12:13:55;;;;;;;1.33;1.23;;;21.70;48.30;;;;;;5034768;28;21056;-64
2022/10/27 12:16:37;;;;;;;1.90;1.80;;;21.70;48.20;;;;;;5035755;28;20463;-63
2022/10/27 12:19:23;;;;;;;1.03;0.93;;;21.70;48.20;;;;;;5032155;28;20467;-67
2022/10/27 12:22:11;;;;;;;1.00;0.90;;;21.70;48.30;;;;;;5031370;28;20528;-65
2022/10/27 12:25:20;;;;;;;1.00;0.90;;;21.70;48.20;;;;;;5032541;28;20470;-62
2022/10/27 12:27:49;;;;;;;0.97;0.90;;;21.70;48.20;;;;;;5019644;28;20444;-62
2022/10/27 12:30:17;;;;;;;1.03;1.00;;;21.70;48.30;;;;;;5028539;28;20983;-63
2022/10/27 12:32:53;;;;;;;0.80;0.80;;;21.70;48.30;;;;;;5039260;28;20443;-64
2022/10/27 12:35:35;;;;;;;1.10;0.93;;;21.70;48.30;;;;;;5038308;28;20458;-64
2022/10/27 12:38:35;;;;;;;1.10;1.00;;;21.70;48.30;;;;;;5043278;28;20454;-63
2022/10/27 12:41:19;;;;;;;1.07;0.97;;;21.70;48.30;;;;;;5039210;28;20477;-63
2022/10/27 12:44:03;;;;;;;1.60;1.10;;;21.70;48.30;;;;;;5041724;28;20463;-63
2022/10/27 12:46:49;;;;;;;1.10;1.00;;;21.70;48.30;;;;;;5038009;28;20525;-65
2022/10/27 12:49:47;;;;;;;1.10;1.00;;;21.70;48.30;;;;;;5040056;28;20825;-60
2022/10/27 12:52:24;;;;;;;1.20;1.10;;;21.70;48.30;;;;;;5037045;28;20460;-64
2022/10/27 12:54:52;;;;;;;1.00;1.00;;;21.70;48.30;;;;;;5031963;28;20458;-64
2022/10/27 12:57:45;;;;;;;1.30;1.20;;;21.70;48.40;;;;;;5042756;28;20977;-63
2022/10/27 13:00:17;;;;;;;1.00;1.00;;;21.70;48.30;;;;;;5041275;28;20487;-62
2022/10/27 13:03:06;;;;;;;0.80;0.80;;;21.70;48.40;;;;;;5039962;28;20473;-64
2022/10/27 13:05:38;;;;;;;0.93;0.90;;;21.70;48.40;;;;;;5038181;28;20514;-59
2022/10/27 13:08:20;;;;;;;1.17;1.07;;;21.70;48.30;;;;;;5032729;28;20463;-61
2022/10/27 13:11:40;;;;;;;1.40;1.30;;;21.70;48.40;;;;;;5029853;28;20485;-63